Time;durP1;ratioP1;P1;durP2;ratioP2;P2;SDS_P1;SDS_P2;PMS_P1;PMS_P2;Temp;Humidity;BMP_temperature;BMP_pressure;BME280_temperature;BME280_humidity;BME280_pressure;Samples;Min_cycle;Max_cycle;Signal;HPM_P1;HPM_P2
2021/03/23 00:00:57;;;;;;;14.23;8.70;;;4.80;99.90;;;;;;5051984;28;20036;-68
2021/03/23 00:03:27;;;;;;;17.20;8.73;;;4.80;99.90;;;;;;5050976;28;20032;-68
2021/03/23 00:05:53;;;;;;;16.77;9.20;;;4.80;99.90;;;;;;5033863;28;20021;-67
2021/03/23 00:08:39;;;;;;;27.20;9.80;;;4.80;99.90;;;;;;5033334;28;20024;-68
2021/03/23 00:11:30;;;;;;;15.07;8.75;;;4.70;99.90;;;;;;5064539;28;20025;-68
2021/03/23 00:13:58;;;;;;;14.45;8.75;;;4.60;99.90;;;;;;5070897;28;20124;-68
2021/03/23 00:16:27;;;;;;;19.60;9.50;;;4.60;99.90;;;;;;5060838;28;20073;-68
2021/03/23 00:18:53;;;;;;;18.67;10.15;;;4.70;99.90;;;;;;5071501;28;20029;-68
2021/03/23 00:21:19;;;;;;;18.17;9.98;;;4.70;99.90;;;;;;5065280;28;20017;-69
2021/03/23 00:23:46;;;;;;;15.35;10.30;;;4.70;99.90;;;;;;5050809;28;20037;-69
2021/03/23 00:26:14;;;;;;;15.05;9.30;;;4.70;99.90;;;;;;5051271;28;20025;-69
2021/03/23 00:28:46;;;;;;;17.17;10.20;;;4.70;99.90;;;;;;5050918;28;20103;-68
2021/03/23 00:31:12;;;;;;;16.60;10.27;;;4.70;99.90;;;;;;5033685;28;20083;-69
2021/03/23 00:33:37;;;;;;;19.08;10.13;;;4.70;99.90;;;;;;5051460;28;20252;-68
2021/03/23 00:36:03;;;;;;;12.88;9.48;;;4.70;99.90;;;;;;5071237;28;20120;-69
2021/03/23 00:38:33;;;;;;;17.63;9.63;;;4.70;99.90;;;;;;5068312;28;20078;-68
2021/03/23 00:40:59;;;;;;;13.15;9.00;;;4.70;99.90;;;;;;5071261;28;20016;-69
2021/03/23 00:43:25;;;;;;;17.05;9.35;;;4.80;99.90;;;;;;5070457;28;20032;-68
2021/03/23 00:45:51;;;;;;;17.10;9.50;;;4.70;99.90;;;;;;5071057;28;20029;-67
2021/03/23 00:48:18;;;;;;;17.30;9.02;;;4.70;99.90;;;;;;5052646;28;20064;-68
2021/03/23 00:50:44;;;;;;;13.90;8.75;;;4.70;99.90;;;;;;5070431;28;20027;-68
2021/03/23 00:53:11;;;;;;;15.73;8.27;;;4.70;99.90;;;;;;5070799;28;20020;-68
2021/03/23 00:55:37;;;;;;;21.75;9.73;;;4.70;99.90;;;;;;5071018;28;20086;-68
2021/03/23 00:58:02;;;;;;;21.05;9.63;;;4.60;99.90;;;;;;5071016;28;20723;-68
2021/03/23 01:00:29;;;;;;;22.70;9.90;;;4.70;99.90;;;;;;5075812;28;20028;-69
2021/03/23 01:02:55;;;;;;;23.48;10.00;;;4.70;99.90;;;;;;5071159;28;20611;-68
2021/03/23 01:05:24;;;;;;;17.45;9.10;;;4.60;99.90;;;;;;5069658;28;20028;-69
2021/03/23 01:07:49;;;;;;;18.48;9.10;;;4.70;99.90;;;;;;5052262;28;20082;-68
2021/03/23 01:10:18;;;;;;;18.08;9.43;;;4.70;99.90;;;;;;5070896;28;20024;-69
2021/03/23 01:12:44;;;;;;;18.02;9.52;;;4.60;99.90;;;;;;5070437;28;20096;-69
2021/03/23 01:15:13;;;;;;;15.63;8.88;;;4.60;99.90;;;;;;5053953;28;20025;-69
2021/03/23 01:17:38;;;;;;;19.13;9.43;;;4.70;99.90;;;;;;5075344;28;20035;-68
2021/03/23 01:20:06;;;;;;;17.30;8.73;;;4.60;99.90;;;;;;5070676;28;20028;-69
2021/03/23 01:22:32;;;;;;;20.33;9.68;;;4.60;99.90;;;;;;5057223;28;20208;-69
2021/03/23 01:24:58;;;;;;;20.65;10.07;;;4.60;99.90;;;;;;5050155;28;20021;-69
2021/03/23 01:27:24;;;;;;;19.98;9.15;;;4.50;99.90;;;;;;5050486;28;20052;-68
2021/03/23 01:29:49;;;;;;;15.55;8.70;;;4.60;99.90;;;;;;5050569;28;20029;-69
2021/03/23 01:32:15;;;;;;;16.27;9.20;;;4.60;99.90;;;;;;5050702;28;20075;-69
2021/03/23 01:34:41;;;;;;;17.17;8.60;;;4.50;99.90;;;;;;5045570;28;20032;-68
2021/03/23 01:37:07;;;;;;;18.02;9.25;;;4.60;99.90;;;;;;5065342;28;20024;-69
2021/03/23 01:39:33;;;;;;;16.02;8.93;;;4.60;99.90;;;;;;5061293;28;20095;-68
2021/03/23 01:41:58;;;;;;;20.02;9.25;;;4.60;99.90;;;;;;5054302;28;20056;-68
2021/03/23 01:44:24;;;;;;;22.35;9.85;;;4.60;99.90;;;;;;5063204;28;20475;-69
2021/03/23 01:46:50;;;;;;;18.27;9.82;;;4.70;99.90;;;;;;5074136;28;20123;-69
2021/03/23 01:49:33;;;;;;;19.42;9.02;;;4.70;99.90;;;;;;5065287;28;20027;-69
2021/03/23 01:52:05;;;;;;;17.67;9.18;;;4.60;99.90;;;;;;5054594;28;20037;-69
2021/03/23 01:54:38;;;;;;;20.98;10.43;;;4.50;99.90;;;;;;5061105;28;20507;-68
2021/03/23 01:57:08;;;;;;;16.85;9.35;;;4.70;99.90;;;;;;5074174;28;20028;-69
2021/03/23 01:59:52;;;;;;;15.10;9.63;;;4.50;99.90;;;;;;5074162;28;20115;-69
2021/03/23 02:02:21;;;;;;;17.80;9.30;;;4.50;99.90;;;;;;5068003;28;20487;-68
2021/03/23 02:04:47;;;;;;;19.75;9.13;;;4.60;99.90;;;;;;5056785;28;20060;-67
2021/03/23 02:07:13;;;;;;;15.15;9.43;;;4.60;99.90;;;;;;5036186;28;20059;-69
2021/03/23 02:09:38;;;;;;;21.55;10.23;;;4.60;99.90;;;;;;5073865;28;20047;-69
2021/03/23 02:12:10;;;;;;;15.00;9.65;;;4.70;99.90;;;;;;5073755;28;20025;-67
2021/03/23 02:14:42;;;;;;;16.67;9.68;;;4.60;99.90;;;;;;5073130;28;20021;-68
2021/03/23 02:17:23;;;;;;;17.23;9.70;;;4.60;99.90;;;;;;5073604;28;20032;-67
2021/03/23 02:20:00;;;;;;;14.93;9.20;;;4.70;99.90;;;;;;5073580;28;20020;-67
2021/03/23 02:22:31;;;;;;;17.50;9.40;;;4.60;99.90;;;;;;5073599;28;20052;-68
2021/03/23 02:24:57;;;;;;;22.42;10.07;;;4.60;99.90;;;;;;5061575;28;20717;-68
2021/03/23 02:27:25;;;;;;;17.08;9.88;;;4.60;99.90;;;;;;5073273;28;20501;-68
2021/03/23 02:29:53;;;;;;;18.40;9.35;;;4.60;99.90;;;;;;5073165;28;20028;-68
2021/03/23 02:32:19;;;;;;;15.10;8.45;;;4.50;99.90;;;;;;5063815;28;20100;-68
2021/03/23 02:34:45;;;;;;;19.48;8.90;;;4.40;99.90;;;;;;5052556;28;20076;-70
2021/03/23 02:37:11;;;;;;;17.58;10.07;;;4.50;99.90;;;;;;5053420;28;20029;-69
2021/03/23 02:39:37;;;;;;;16.45;9.50;;;4.40;99.90;;;;;;5062305;28;20024;-68
2021/03/23 02:42:04;;;;;;;17.88;9.50;;;4.50;99.90;;;;;;5072871;28;20142;-68
2021/03/23 02:44:38;;;;;;;16.70;9.38;;;4.40;99.90;;;;;;5071894;28;20074;-68
2021/03/23 02:47:04;;;;;;;17.92;9.80;;;4.40;99.90;;;;;;5073635;28;20533;-67
2021/03/23 02:49:29;;;;;;;17.70;10.10;;;4.40;99.90;;;;;;5086168;28;20024;-68
2021/03/23 02:51:55;;;;;;;19.63;10.15;;;4.30;99.90;;;;;;5086314;28;20035;-68
2021/03/23 02:54:20;;;;;;;17.77;10.35;;;4.30;99.90;;;;;;5084656;28;20085;-68
2021/03/23 02:56:46;;;;;;;20.38;10.30;;;4.40;99.90;;;;;;5063612;28;20047;-67
2021/03/23 02:59:12;;;;;;;19.02;10.00;;;4.40;99.90;;;;;;5060848;28;20446;-68
2021/03/23 03:01:37;;;;;;;24.30;10.68;;;4.30;99.90;;;;;;5080748;28;20107;-69
2021/03/23 03:04:05;;;;;;;19.13;9.73;;;4.40;99.90;;;;;;5075571;28;20028;-67
2021/03/23 03:06:30;;;;;;;16.98;9.25;;;4.40;99.90;;;;;;5072818;28;20563;-68
2021/03/23 03:08:57;;;;;;;15.55;9.40;;;4.30;99.90;;;;;;5055056;28;20033;-68
2021/03/23 03:11:22;;;;;;;23.90;10.05;;;4.40;99.90;;;;;;5073804;28;20028;-67
2021/03/23 03:13:48;;;;;;;16.85;9.20;;;4.40;99.90;;;;;;5072628;28;20426;-68
2021/03/23 03:16:13;;;;;;;17.20;9.75;;;4.40;99.90;;;;;;5073901;28;20052;-68
2021/03/23 03:18:39;;;;;;;19.77;10.10;;;4.30;99.90;;;;;;5063904;28;20029;-68
2021/03/23 03:21:05;;;;;;;20.10;10.13;;;4.30;99.90;;;;;;5053194;28;20092;-68
2021/03/23 03:23:31;;;;;;;18.05;9.77;;;4.30;99.90;;;;;;5053430;28;20021;-68
2021/03/23 03:25:57;;;;;;;22.83;10.48;;;4.30;99.90;;;;;;5046201;28;20067;-67
2021/03/23 03:28:23;;;;;;;16.05;8.95;;;4.30;99.90;;;;;;5072050;28;20020;-68
2021/03/23 03:30:49;;;;;;;17.30;10.13;;;4.30;99.90;;;;;;5055101;28;20029;-67
2021/03/23 03:33:17;;;;;;;26.73;9.95;;;4.40;99.90;;;;;;5051656;28;20867;-67
2021/03/23 03:35:45;;;;;;;18.52;9.45;;;4.40;99.90;;;;;;5068363;28;20025;-68
2021/03/23 03:38:12;;;;;;;22.52;11.07;;;4.30;99.90;;;;;;5064647;28;20510;-68
2021/03/23 03:40:49;;;;;;;23.17;9.95;;;4.40;99.90;;;;;;5079251;28;20032;-68
2021/03/23 03:43:16;;;;;;;19.77;10.48;;;4.20;99.90;;;;;;5061335;28;20031;-68
2021/03/23 03:45:42;;;;;;;20.27;9.95;;;4.10;99.90;;;;;;5058324;28;20110;-68
2021/03/23 03:48:08;;;;;;;18.40;9.95;;;4.20;99.90;;;;;;5052037;28;20023;-67
2021/03/23 03:50:34;;;;;;;16.88;9.85;;;4.10;99.90;;;;;;5051362;28;20485;-67
2021/03/23 03:53:00;;;;;;;21.75;10.52;;;4.20;99.90;;;;;;5050854;28;20108;-69
2021/03/23 03:55:32;;;;;;;19.23;10.02;;;3.90;99.90;;;;;;5055783;28;20450;-67
2021/03/23 03:57:59;;;;;;;18.35;9.35;;;3.90;99.90;;;;;;5071495;28;20029;-67
2021/03/23 04:00:27;;;;;;;20.80;10.00;;;3.90;99.90;;;;;;5071644;28;20035;-67
2021/03/23 04:02:52;;;;;;;21.85;10.45;;;3.90;99.90;;;;;;5070633;28;20020;-67
2021/03/23 04:05:22;;;;;;;18.85;10.07;;;3.90;99.90;;;;;;5055628;28;20446;-67
2021/03/23 04:07:48;;;;;;;21.88;10.02;;;3.90;99.90;;;;;;5051654;28;20221;-67
2021/03/23 04:10:15;;;;;;;16.83;10.07;;;3.90;99.90;;;;;;5065134;28;20028;-67
2021/03/23 04:12:41;;;;;;;20.85;10.80;;;4.00;99.90;;;;;;5070982;28;20115;-68
2021/03/23 04:15:08;;;;;;;18.20;10.82;;;4.00;99.90;;;;;;5071386;28;20104;-67
2021/03/23 04:17:33;;;;;;;22.42;10.70;;;4.10;99.90;;;;;;5051670;28;20067;-69
2021/03/23 04:20:00;;;;;;;18.92;9.80;;;4.10;99.90;;;;;;5051641;28;20025;-69
2021/03/23 04:22:25;;;;;;;20.25;10.25;;;4.00;99.90;;;;;;5064956;28;20107;-68
2021/03/23 04:24:51;;;;;;;21.77;9.55;;;4.00;99.90;;;;;;5070712;28;20104;-68
2021/03/23 04:27:16;;;;;;;21.65;9.95;;;4.00;99.90;;;;;;5063518;28;20028;-68
2021/03/23 04:29:42;;;;;;;18.00;9.77;;;4.00;99.90;;;;;;5051058;28;20036;-68
2021/03/23 04:32:08;;;;;;;19.83;10.18;;;4.10;99.90;;;;;;5053618;28;20582;-66
2021/03/23 04:34:34;;;;;;;19.90;10.80;;;4.10;99.90;;;;;;5070972;28;20374;-67
2021/03/23 04:37:00;;;;;;;20.27;10.43;;;4.00;99.90;;;;;;5071057;28;20040;-67
2021/03/23 04:39:25;;;;;;;21.50;10.93;;;4.10;99.90;;;;;;5070887;28;20463;-68
2021/03/23 04:41:51;;;;;;;21.88;10.60;;;4.20;99.90;;;;;;5071030;28;20028;-68
2021/03/23 04:44:17;;;;;;;19.98;10.18;;;4.10;99.90;;;;;;5070348;28;20025;-68
2021/03/23 04:46:42;;;;;;;25.65;10.68;;;4.10;99.90;;;;;;5070002;28;20028;-68
2021/03/23 04:49:08;;;;;;;21.45;10.55;;;4.20;99.90;;;;;;5070424;28;20025;-69
2021/03/23 04:51:33;;;;;;;21.75;10.90;;;4.20;99.90;;;;;;5051204;28;20390;-67
2021/03/23 04:54:08;;;;;;;20.10;10.35;;;4.30;99.90;;;;;;5049959;28;20032;-69
2021/03/23 04:56:40;;;;;;;19.58;11.15;;;4.30;99.90;;;;;;5061758;28;20021;-69
2021/03/23 04:59:06;;;;;;;;;;;4.20;99.90;;;;;;5070847;28;20024;-67
2021/03/23 05:01:32;;;;;;;19.23;10.60;;;4.10;99.90;;;;;;5070020;28;20011;-69
2021/03/23 05:04:00;;;;;;;24.70;11.35;;;4.10;99.90;;;;;;5051479;28;20108;-68
2021/03/23 05:06:27;;;;;;;19.88;10.85;;;4.00;99.90;;;;;;5070435;28;20495;-68
2021/03/23 05:08:53;;;;;;;19.40;10.35;;;4.00;99.90;;;;;;5054842;28;20483;-65
2021/03/23 05:11:24;;;;;;;31.35;12.75;;;4.00;99.90;;;;;;5070912;28;20023;-68
2021/03/23 05:13:50;;;;;;;19.05;10.90;;;4.00;99.90;;;;;;5068935;28;20033;-66
2021/03/23 05:16:16;;;;;;;17.75;9.82;;;4.00;99.90;;;;;;5054740;28;20021;-67
2021/03/23 05:18:42;;;;;;;23.42;11.65;;;4.00;99.90;;;;;;5054590;28;20022;-66
2021/03/23 05:21:08;;;;;;;29.52;11.63;;;3.90;99.90;;;;;;5054978;28;20529;-68
2021/03/23 05:23:34;;;;;;;23.85;11.10;;;4.00;99.90;;;;;;5054313;28;20062;-68
2021/03/23 05:26:00;;;;;;;34.05;12.82;;;4.00;99.90;;;;;;5074675;28;20555;-68
2021/03/23 05:28:26;;;;;;;22.88;10.80;;;4.00;99.90;;;;;;5056614;28;20468;-68
2021/03/23 05:30:52;;;;;;;25.63;12.60;;;4.00;99.90;;;;;;5074385;28;20053;-67
2021/03/23 05:33:20;;;;;;;25.13;11.32;;;4.10;99.90;;;;;;5055504;28;20180;-69
2021/03/23 05:35:46;;;;;;;22.70;11.45;;;4.10;99.90;;;;;;5054345;28;20045;-68
2021/03/23 05:38:12;;;;;;;26.90;11.52;;;4.00;99.90;;;;;;5053920;28;20107;-68
2021/03/23 05:40:49;;;;;;;24.45;12.05;;;4.10;99.90;;;;;;5071177;28;20020;-69
2021/03/23 05:43:21;;;;;;;20.50;13.10;;;4.10;99.90;;;;;;5073181;28;20047;-69
2021/03/23 05:45:48;;;;;;;19.55;10.93;;;4.10;99.90;;;;;;5055284;28;20107;-70
2021/03/23 05:48:19;;;;;;;18.10;9.85;;;4.10;99.90;;;;;;5073590;28;20037;-70
2021/03/23 05:51:05;;;;;;;27.60;11.93;;;4.10;99.90;;;;;;5066561;28;20027;-72
2021/03/23 05:53:50;;;;;;;20.38;10.95;;;4.20;99.90;;;;;;5065303;28;20032;-69
2021/03/23 05:56:16;;;;;;;25.55;10.60;;;4.10;99.90;;;;;;5085805;28;20024;-67
2021/03/23 05:58:50;;;;;;;28.05;11.77;;;4.10;99.90;;;;;;5074639;28;20029;-68
2021/03/23 06:01:34;;;;;;;20.77;11.20;;;4.30;99.90;;;;;;5056511;28;20451;-68
2021/03/23 06:04:15;;;;;;;19.75;11.27;;;4.20;99.90;;;;;;5074002;28;20036;-69
2021/03/23 06:06:48;;;;;;;19.63;11.07;;;4.20;99.90;;;;;;5074170;28;20025;-68
2021/03/23 06:09:16;;;;;;;22.17;12.18;;;4.10;99.90;;;;;;5068632;28;20063;-69
2021/03/23 06:11:42;;;;;;;24.70;12.70;;;4.20;99.90;;;;;;5074699;28;20032;-68
2021/03/23 06:14:19;;;;;;;21.00;11.48;;;4.20;99.90;;;;;;5074169;28;20013;-68
2021/03/23 06:17:03;;;;;;;22.88;12.23;;;4.20;99.90;;;;;;5061553;28;20035;-67
2021/03/23 06:19:55;;;;;;;27.88;12.52;;;4.40;99.90;;;;;;5080645;28;20024;-70
2021/03/23 06:22:27;;;;;;;20.27;11.68;;;4.50;99.90;;;;;;5037008;28;20056;-70
2021/03/23 06:25:30;;;;;;;15.80;11.13;;;4.60;99.90;;;;;;5052693;28;20025;-71
2021/03/23 06:28:19;;;;;;;26.85;11.90;;;4.60;99.90;;;;;;4992464;28;20071;-71
2021/03/23 06:30:53;;;;;;;18.63;10.60;;;4.70;99.90;;;;;;5054071;28;20033;-65
2021/03/23 06:33:25;;;;;;;26.83;11.95;;;4.70;99.90;;;;;;5073958;28;20039;-64
2021/03/23 06:36:04;;;;;;;20.83;11.52;;;4.70;99.90;;;;;;5074166;28;20052;-65
2021/03/23 06:38:41;;;;;;;22.23;11.52;;;4.80;99.90;;;;;;5055819;28;20025;-65
2021/03/23 06:41:21;;;;;;;21.23;10.13;;;4.90;99.90;;;;;;5071894;28;20032;-65
2021/03/23 06:43:58;;;;;;;20.70;10.25;;;4.90;99.90;;;;;;5068518;28;20031;-67
2021/03/23 06:46:43;;;;;;;18.40;10.45;;;4.70;99.90;;;;;;5074791;28;20088;-67
2021/03/23 06:49:16;;;;;;;22.90;10.38;;;4.80;99.90;;;;;;5073956;28;20036;-68
2021/03/23 06:51:50;;;;;;;;;;;4.60;99.90;;;;;;5075438;28;20025;-67
2021/03/23 06:54:30;;;;;;;22.77;9.70;;;4.80;99.90;;;;;;5074266;28;19963;-68
2021/03/23 06:57:04;;;;;;;24.70;10.75;;;5.00;99.90;;;;;;5075072;28;20016;-67
2021/03/23 06:59:52;;;;;;;21.55;10.18;;;5.10;99.90;;;;;;5074876;28;20025;-68
2021/03/23 07:02:30;;;;;;;21.92;11.25;;;5.10;99.90;;;;;;5007437;28;20036;-67
2021/03/23 07:04:56;;;;;;;23.15;10.60;;;5.10;99.90;;;;;;5070879;28;20510;-67
2021/03/23 07:07:22;;;;;;;21.27;10.40;;;5.10;99.90;;;;;;5091739;28;20043;-68
2021/03/23 07:09:58;;;;;;;26.58;10.95;;;5.10;99.90;;;;;;5091808;28;20021;-69
2021/03/23 07:12:44;;;;;;;21.05;10.68;;;5.00;99.90;;;;;;5092846;28;20091;-70
2021/03/23 07:15:30;;;;;;;19.85;10.55;;;5.20;99.90;;;;;;5088879;28;20027;-68
2021/03/23 07:18:12;;;;;;;15.52;9.55;;;5.20;99.90;;;;;;5088925;28;20048;-69
2021/03/23 07:20:48;;;;;;;20.33;10.23;;;5.40;99.90;;;;;;5088116;28;20057;-68
2021/03/23 07:23:30;;;;;;;20.13;10.77;;;5.20;99.90;;;;;;5093240;28;20040;-69
2021/03/23 07:26:12;;;;;;;25.75;10.63;;;5.30;99.90;;;;;;5081350;28;20044;-69
2021/03/23 07:28:39;;;;;;;18.30;10.05;;;5.40;99.90;;;;;;5091401;28;20032;-69
2021/03/23 07:31:29;;;;;;;18.05;9.85;;;5.50;99.90;;;;;;5070397;28;20021;-69
2021/03/23 07:34:04;;;;;;;19.83;10.50;;;5.40;99.90;;;;;;5079421;28;20035;-69
2021/03/23 07:36:35;;;;;;;25.08;10.85;;;5.50;99.90;;;;;;5070841;28;20121;-68
2021/03/23 07:39:14;;;;;;;17.45;9.95;;;5.30;99.90;;;;;;5080145;28;20036;-68
2021/03/23 07:41:46;;;;;;;20.52;11.07;;;5.40;99.90;;;;;;5049881;28;20079;-68
2021/03/23 07:44:32;;;;;;;19.20;10.00;;;5.50;99.90;;;;;;5077831;28;20047;-68
2021/03/23 07:47:02;;;;;;;20.05;10.88;;;5.70;99.90;;;;;;5093467;28;20304;-67
2021/03/23 07:49:39;;;;;;;18.33;10.50;;;5.60;99.90;;;;;;5084561;28;20107;-68
2021/03/23 07:52:30;;;;;;;15.32;9.80;;;5.30;99.90;;;;;;5073844;28;20440;-68
2021/03/23 07:55:00;;;;;;;20.50;10.93;;;5.50;99.90;;;;;;5072152;28;20016;-68
2021/03/23 07:57:47;;;;;;;20.50;9.82;;;5.40;99.90;;;;;;5089299;28;20035;-69
2021/03/23 08:00:25;;;;;;;26.88;10.60;;;5.50;99.90;;;;;;5092609;28;20024;-67
2021/03/23 08:03:30;;;;;;;22.77;10.90;;;5.70;99.90;;;;;;5074714;28;20550;-68
2021/03/23 08:06:02;;;;;;;24.30;11.05;;;5.80;99.90;;;;;;5072283;28;20047;-67
2021/03/23 08:08:50;;;;;;;20.00;10.30;;;5.90;99.90;;;;;;5064982;28;20045;-68
2021/03/23 08:11:57;;;;;;;15.25;9.25;;;6.10;99.90;;;;;;5033726;28;20384;-75
2021/03/23 08:14:41;;;;;;;19.92;10.38;;;6.20;99.90;;;;;;5037771;28;20037;-74
2021/03/23 08:17:14;;;;;;;14.68;9.80;;;6.50;99.90;;;;;;5034367;28;20036;-76
2021/03/23 08:19:50;;;;;;;16.60;9.80;;;6.70;99.90;;;;;;5052167;28;20025;-75
2021/03/23 08:22:44;;;;;;;18.38;10.57;;;6.60;99.90;;;;;;5063728;28;20028;-74
2021/03/23 08:25:33;;;;;;;21.90;11.07;;;6.80;99.90;;;;;;5074132;28;20493;-75
2021/03/23 08:28:13;;;;;;;23.10;12.57;;;7.00;99.90;;;;;;5072274;28;20083;-77
2021/03/23 08:30:51;;;;;;;25.45;12.68;;;7.10;99.90;;;;;;5064044;28;20115;-75
2021/03/23 08:33:47;;;;;;;23.05;12.55;;;7.00;99.90;;;;;;5069010;28;20614;-77
2021/03/23 08:36:25;;;;;;;25.45;13.75;;;7.10;99.90;;;;;;5037120;28;20040;-77
2021/03/23 08:39:02;;;;;;;26.77;15.02;;;7.20;99.90;;;;;;5055885;28;20881;-76
2021/03/23 08:42:00;;;;;;;27.13;15.23;;;7.50;99.90;;;;;;5072994;28;20021;-77
2021/03/23 08:44:32;;;;;;;24.77;13.38;;;7.40;99.90;;;;;;5048218;28;20032;-75
2021/03/23 08:47:21;;;;;;;26.38;13.85;;;7.40;99.90;;;;;;5084396;28;20024;-76
2021/03/23 08:49:48;;;;;;;27.60;15.40;;;7.60;99.90;;;;;;5096097;28;20047;-69
2021/03/23 08:52:42;;;;;;;28.48;14.68;;;7.70;99.90;;;;;;5093554;28;20705;-68
2021/03/23 08:55:29;;;;;;;25.83;15.23;;;7.80;99.90;;;;;;5070042;28;20189;-67
2021/03/23 08:58:10;;;;;;;30.02;16.30;;;8.00;99.90;;;;;;5076348;28;20025;-67
2021/03/23 09:00:58;;;;;;;27.08;15.00;;;8.10;99.90;;;;;;5079500;28;20032;-68
2021/03/23 09:04:08;;;;;;;24.90;14.43;;;8.40;99.90;;;;;;5056946;28;20028;-66
2021/03/23 09:06:53;;;;;;;28.55;15.88;;;8.20;99.90;;;;;;4975408;28;20038;-69
2021/03/23 09:09:18;;;;;;;26.02;14.85;;;8.60;99.90;;;;;;5074150;28;20097;-66
2021/03/23 09:11:47;;;;;;;25.17;15.40;;;8.80;99.90;;;;;;5075912;28;20024;-68
2021/03/23 09:14:23;;;;;;;26.15;14.80;;;9.00;99.90;;;;;;5078173;28;20020;-67
2021/03/23 09:16:50;;;;;;;29.40;15.68;;;9.20;99.90;;;;;;5067654;28;20024;-67
2021/03/23 09:19:51;;;;;;;30.50;16.08;;;9.40;99.90;;;;;;5079521;28;20024;-66
2021/03/23 09:22:17;;;;;;;24.60;15.48;;;9.30;99.90;;;;;;5023758;28;20037;-66
2021/03/23 09:24:44;;;;;;;27.80;15.52;;;9.30;99.90;;;;;;5078574;28;20029;-67
2021/03/23 09:27:31;;;;;;;27.40;15.55;;;9.80;99.90;;;;;;5095823;28;20107;-67
2021/03/23 09:29:57;;;;;;;60.50;31.13;;;9.90;99.90;;;;;;5095473;28;20028;-67
2021/03/23 09:32:28;;;;;;;44.53;25.13;;;9.90;99.90;;;;;;5094939;28;20028;-67
2021/03/23 09:35:19;;;;;;;65.63;39.28;;;10.40;99.90;;;;;;5076808;28;20111;-66
2021/03/23 09:37:50;;;;;;;31.85;16.77;;;10.90;99.90;;;;;;5064225;28;20017;-66
2021/03/23 09:40:19;;;;;;;27.20;17.17;;;11.10;99.90;;;;;;5055062;28;20013;-66
2021/03/23 09:42:46;;;;;;;27.70;15.15;;;11.40;99.90;;;;;;5036388;28;20046;-67
2021/03/23 09:45:11;;;;;;;24.33;16.35;;;11.30;99.90;;;;;;5055326;28;20033;-67
2021/03/23 09:47:54;;;;;;;23.35;15.38;;;11.30;99.90;;;;;;5055398;28;20036;-67
2021/03/23 09:50:28;;;;;;;23.42;15.90;;;11.40;99.90;;;;;;5055731;28;20059;-74
2021/03/23 09:53:09;;;;;;;54.25;33.65;;;12.20;99.90;;;;;;5070080;28;20028;-68
2021/03/23 09:55:38;;;;;;;32.30;22.38;;;13.00;99.90;;;;;;5075105;28;20067;-69
2021/03/23 09:58:04;;;;;;;26.50;16.02;;;12.50;99.90;;;;;;5075313;28;20035;-70
2021/03/23 10:00:33;;;;;;;27.50;15.85;;;11.60;99.90;;;;;;5074099;28;20033;-68
2021/03/23 10:02:59;;;;;;;23.27;15.07;;;11.20;99.90;;;;;;5074767;28;20036;-69
2021/03/23 10:05:28;;;;;;;23.73;15.18;;;11.30;99.90;;;;;;5075195;28;20028;-69
2021/03/23 10:08:14;;;;;;;24.92;15.18;;;10.90;99.90;;;;;;5074934;28;20021;-69
2021/03/23 10:10:40;;;;;;;24.27;14.65;;;10.00;99.90;;;;;;5075087;28;20167;-69
2021/03/23 10:13:26;;;;;;;26.70;16.33;;;10.10;99.90;;;;;;5056199;28;20115;-73
2021/03/23 10:15:52;;;;;;;25.58;18.20;;;10.30;99.90;;;;;;5075122;28;20055;-69
2021/03/23 10:18:30;;;;;;;25.83;15.90;;;10.30;99.90;;;;;;5074476;28;20413;-69
2021/03/23 10:21:13;;;;;;;24.55;14.52;;;10.30;99.90;;;;;;5075066;28;20020;-70
2021/03/23 10:23:48;;;;;;;23.42;14.60;;;9.80;99.90;;;;;;5087364;28;20059;-69
2021/03/23 10:26:14;;;;;;;21.77;13.88;;;9.80;99.90;;;;;;5090199;28;20363;-67
2021/03/23 10:28:53;;;;;;;24.75;14.48;;;9.40;99.90;;;;;;5054943;28;20560;-67
2021/03/23 10:31:34;;;;;;;26.23;14.07;;;9.30;99.90;;;;;;5074905;28;20060;-68
2021/03/23 10:34:11;;;;;;;22.27;13.90;;;9.30;99.90;;;;;;5074139;28;20024;-68
2021/03/23 10:36:50;;;;;;;24.83;15.18;;;9.10;99.90;;;;;;5056041;28;20024;-68
2021/03/23 10:39:47;;;;;;;23.55;14.23;;;9.00;99.90;;;;;;5054546;28;20391;-70
2021/03/23 10:42:13;;;;;;;25.23;14.65;;;9.00;99.90;;;;;;5054438;28;20025;-69
2021/03/23 10:44:39;;;;;;;26.52;15.15;;;8.80;99.90;;;;;;5035527;28;20148;-70
2021/03/23 10:47:05;;;;;;;24.85;14.48;;;8.90;99.90;;;;;;5054006;28;20033;-68
2021/03/23 10:49:37;;;;;;;24.27;13.38;;;9.00;99.90;;;;;;5053595;28;20036;-66
2021/03/23 10:52:29;;;;;;;23.50;13.73;;;9.20;99.90;;;;;;5045313;28;20094;-68
2021/03/23 10:55:24;;;;;;;21.40;13.23;;;9.30;99.90;;;;;;5039836;28;20033;-68
2021/03/23 10:57:50;;;;;;;24.23;13.18;;;9.00;99.90;;;;;;5073617;28;20040;-69
2021/03/23 11:00:15;;;;;;;19.70;13.05;;;8.90;99.90;;;;;;5074647;28;20390;-70
2021/03/23 11:02:41;;;;;;;24.75;13.63;;;9.00;99.90;;;;;;5072772;28;20620;-69
2021/03/23 11:05:11;;;;;;;22.17;13.52;;;9.10;99.90;;;;;;5073459;28;20033;-69
2021/03/23 11:08:00;;;;;;;24.58;13.40;;;8.90;99.90;;;;;;5073180;28;20032;-69
2021/03/23 11:10:32;;;;;;;23.83;13.45;;;8.90;99.90;;;;;;5073227;28;20020;-69
2021/03/23 11:12:58;;;;;;;20.42;12.13;;;9.00;99.90;;;;;;5073065;28;20055;-67
2021/03/23 11:15:24;;;;;;;18.20;12.05;;;9.00;99.90;;;;;;5073723;28;20076;-68
2021/03/23 11:17:51;;;;;;;18.83;12.85;;;9.20;99.90;;;;;;5073895;28;20154;-67
2021/03/23 11:20:23;;;;;;;23.58;12.68;;;9.10;99.90;;;;;;5075908;28;20055;-68
2021/03/23 11:22:52;;;;;;;20.90;12.15;;;9.20;99.90;;;;;;5078754;28;20858;-68
2021/03/23 11:25:20;;;;;;;19.13;11.88;;;9.30;99.90;;;;;;5093625;28;20032;-67
2021/03/23 11:27:46;;;;;;;21.80;12.38;;;9.30;99.90;;;;;;5093691;28;20061;-66
2021/03/23 11:30:13;;;;;;;18.80;11.25;;;9.40;99.90;;;;;;5097035;28;20051;-66
2021/03/23 11:32:38;;;;;;;18.92;10.82;;;9.40;99.90;;;;;;5080721;28;20028;-68
2021/03/23 11:35:05;;;;;;;18.55;10.65;;;9.30;99.90;;;;;;5110599;28;20547;-69
2021/03/23 11:37:31;;;;;;;19.15;10.10;;;9.40;99.90;;;;;;5105764;28;20020;-67
2021/03/23 11:39:57;;;;;;;16.33;11.32;;;9.50;99.90;;;;;;5070116;28;20029;-70
2021/03/23 11:42:52;;;;;;;20.00;12.18;;;9.60;99.90;;;;;;5078351;28;20040;-67
2021/03/23 11:45:29;;;;;;;22.13;11.88;;;9.80;99.90;;;;;;5061587;28;20359;-66
2021/03/23 11:48:01;;;;;;;21.58;12.52;;;9.90;99.90;;;;;;5085993;28;20398;-70
2021/03/23 11:50:28;;;;;;;;;;;10.00;99.90;;;;;;5087085;28;20121;-68
2021/03/23 11:52:55;;;;;;;22.48;11.88;;;9.90;99.90;;;;;;5086184;28;19905;-67
2021/03/23 11:55:33;;;;;;;17.17;11.63;;;10.00;99.90;;;;;;5076191;28;20020;-67
2021/03/23 11:57:59;;;;;;;18.55;10.90;;;9.80;99.90;;;;;;5074200;28;20024;-67
2021/03/23 12:00:30;;;;;;;19.25;11.75;;;9.80;99.90;;;;;;5074087;28;20035;-67
2021/03/23 12:03:00;;;;;;;19.75;11.05;;;9.70;99.90;;;;;;5074907;28;20059;-69
2021/03/23 12:05:26;;;;;;;18.55;10.10;;;9.50;99.90;;;;;;5074655;28;20016;-69
2021/03/23 12:08:10;;;;;;;23.25;10.95;;;9.60;99.90;;;;;;5073593;28;20028;-72
2021/03/23 12:10:45;;;;;;;16.75;9.85;;;9.70;99.90;;;;;;5055349;28;20040;-71
2021/03/23 12:13:17;;;;;;;19.10;10.93;;;9.70;99.90;;;;;;5054767;28;20549;-70
2021/03/23 12:15:57;;;;;;;18.23;11.05;;;9.70;99.90;;;;;;5070563;28;20029;-68
2021/03/23 12:18:23;;;;;;;23.83;13.05;;;9.70;99.90;;;;;;5074438;28;20023;-70
2021/03/23 12:20:59;;;;;;;23.60;14.73;;;9.50;99.90;;;;;;5078008;28;20486;-70
2021/03/23 12:23:25;;;;;;;22.25;12.60;;;9.40;99.90;;;;;;5052293;28;20040;-69
2021/03/23 12:25:53;;;;;;;20.10;12.50;;;9.20;99.90;;;;;;5062009;28;20055;-69
2021/03/23 12:28:19;;;;;;;19.33;13.55;;;9.20;99.90;;;;;;5063760;28;20127;-69
2021/03/23 12:30:45;;;;;;;21.25;13.48;;;9.30;99.90;;;;;;5048083;28;20564;-69
2021/03/23 12:33:11;;;;;;;21.58;13.20;;;9.40;99.90;;;;;;5064438;28;20074;-69
2021/03/23 12:35:37;;;;;;;19.60;11.52;;;9.40;99.90;;;;;;5047188;28;20025;-67
2021/03/23 12:38:05;;;;;;;20.10;11.52;;;9.50;99.90;;;;;;5064059;28;20016;-69
2021/03/23 12:40:32;;;;;;;21.52;11.45;;;9.40;99.90;;;;;;5066737;28;20059;-71
2021/03/23 12:42:58;;;;;;;17.38;9.88;;;9.40;99.90;;;;;;5068848;28;20033;-68
2021/03/23 12:45:34;;;;;;;19.60;12.82;;;9.10;99.90;;;;;;5073662;28;20055;-68
2021/03/23 12:48:00;;;;;;;19.83;10.80;;;9.30;99.90;;;;;;5070103;28;20027;-68
2021/03/23 12:50:27;;;;;;;17.20;10.85;;;9.30;99.90;;;;;;5055386;28;20024;-67
2021/03/23 12:52:55;;;;;;;16.05;9.35;;;9.30;99.90;;;;;;5073074;28;20021;-68
2021/03/23 12:55:28;;;;;;;13.15;8.85;;;9.30;99.90;;;;;;5094210;28;20396;-69
2021/03/23 12:58:00;;;;;;;17.95;8.93;;;9.40;99.90;;;;;;5097774;28;20051;-68
2021/03/23 13:00:29;;;;;;;14.77;8.13;;;9.40;99.90;;;;;;5095016;28;20071;-68
2021/03/23 13:02:55;;;;;;;19.30;9.38;;;9.50;99.90;;;;;;5076765;28;20091;-70
2021/03/23 13:05:22;;;;;;;17.30;9.13;;;9.40;99.90;;;;;;5093594;28;20391;-70